India Meteorological Department
Airport METARs
Date : 17-10-2018
Sl. # Airport METAR
1 Agartala VEAT 170400Z 00000KT 5000 HZ NSC 29/18 Q1014 NOSIG=
2 Ahmedabad VAAH 170400Z 34003KT 4000 FU FEW080 31/19 Q1014 BECMG 5000=
3 Amritsar VIAR 170400Z VRB02KT 5000 HZ NSC 22/16 Q1014 NOSIG=
4 Aurangabad VAAU 170300Z 09002KT 5000 HZ NSC 25/16 Q1017 NOSIG=
5 Bangalore VOBL 170400Z 25007KT 210V300 8000 SCT010 24/22 Q1019 NOSIG=
6 Baroda VABO 170400Z 05003KT 5000 HZ NSC 28/20 Q1013 NOSIG=
7 Bhaunagar VABV 170400Z 35004KT 5000 FU NSC 31/13 Q1013=
8 Bhopal VABP 170400Z 19005KT 5000 HZ FEW100 27/15 Q1017 NOSIG=
9 Bhubaneswar VEBS 170400Z 25002KT 4000 HZ NSC 29/24 Q1014 NOSIG=
10 Bhuntar VIBR 170300Z 00000KT 7000 NSC 12/08 Q1021=
11 Chennai VOMM 170400Z 25007KT 5000 HZ FEW020 SCT100 31/24 Q1014 NOSIG=
12 Coimbatore VOCB 170400Z 00000KT 5000 HZ FEW015 SCT080 27/21 Q1017 NOSIG=
13 Colombo VCBI 170410Z 19006KT 160V230 9999 FEW016 FEW018CB 27/23 Q1015 NOSIG RMK W/NW=
14 Delhi VIDP 170400Z 15006KT 2500 HZ FEW100 28/15 Q1013 NOSIG=
15 Dehradun VIDN 170300Z 35003KT 6000 FEW100 19/17 Q1015 =
16 Gauhati VEGT 170400Z 01004KT 2500 BR FEW018 SCT100 27/27 Q1014 NOSIG=
17 Gaya VEGY 170400Z 23008KT 3000 HZ NSC 27/19 Q1013 NOSIG=
18 Gaggal VIGG 170400Z 12002KT 6000 FEW035 23/11 Q1018=
19 Fursatganj VERB 170400Z 00000KT 3500 HZ NSC 28/19 Q1012=
20 Hyderabad VOHS 170400Z VRB04KT 3000 BR SCT015 OVC080 27/23 Q1018 BECMG 5000=
21 Imphal VEIM 170400Z 00000KT 4000 BR FEW018 SCT025 22/17 Q1015 NOSIG=
22 Indore VAID 170400Z 00000KT 40000 HZ NSC 30/14 Q1017 NOSIG=
23 Jaipur VIJP 170400Z 25004KT 2000 HZ NSC 28/11 Q1014 NOSIG=
24 Kochi VOCI 170400Z 00000KT 5000 HZ SCT012 27/23 Q1014 NOSIG=
25 Kolkata VECC 170400Z 17005KT 3200 HZ NSC 29/22 Q1013 NOSIG=
26 Kozhikode VOCL 170400Z 07003KT 6000 FEW012 SCT080 26/23 Q1014 NOSIG=
27 Lucknow VILK 170400Z 16004KT 3000 HZ NSC 29/18 Q1013 NOSIG=
28 Madurai VOMD 170400Z 04003KT 4000 HZ FEW018 BKN090 29/23 Q1015 BECMG 5000 HZ=
29 Mohanbari VEMN 170400Z 09004KT 5000 HZ FEW025 SCT100 28/22 Q1014 NOSIG=
30 Mumbai VABB 170400Z 11005KT 2500 HZ SCT100 31/24 Q1013 NOSIG=
31 Nagpur VANP 170400Z 00000KT 3000 HZ NSC 29/20 Q1016 NOSIG=
32 Ozar VAOZ 170400Z 12004KT 6000 BKN250 28/15 Q1017 NOSIG=
33 Pantnagar VIPT 170400Z 09005KT 5000 HZ NSC 21/14 Q1014 =
34 Patna VEPT 170400Z 23005KT 2500 BR NSC 29/20 Q1012 BECMG 3000 HZ=
35 Raipur VERP 170400Z 21005KT 5000 HZ NSC 28/19 Q1017 NOSIG=
36 Safdarjung VIDD 170400Z 19004KT 2500 HZ NSC 24/19 Q1013 NOSIG=
37 Shimla VISM 170400Z 27003KT 7000 NSC 21/06 Q1021=
38 Surat VASU 170400Z 00000KT 4000 HZ NSC 31/21 Q1013=
39 Ranchi VERC 170400Z 00000KT 4000 HZ NSC 27/14 Q1017 NOSIG=
40 Trichy VOTR 170400Z 27004KT 4000 HZ SCT016 BKN080 27/22 Q1013 NOSIG=
41 Trivandrum VOTV 170400Z 34005KT 5000 HZ SCT015 BKN080 27/23 Q1015 NOSIG=
42 Udaipur VAUD 170400Z 00000KT 5000 HZ FEW100 29/14 Q1016 NOSIG=
43 Varanasi VEBN 170400Z 24004KT 4000 HZ NSC 27/20 Q1012 BECMG 5000 HZ=
44 Vizag VOVZ 170400Z VRB02KT 4500 HZ FEW018 31/24 Q1014 NOSIG =
45 Male VRMM 170400Z 25006KT 9999 FEW019 BKN280 30/24 Q1014 NOSIG=
46 Gan VRMG 170400Z 16003KT 9999 FEW018 FEW019CB SCT270 30/26 Q1014 CB NW NOSIG=
47 Kathmandu VNKT 170400Z NIL=
48 Dhaka VGHS 170400Z 10004KT 3500 HZ NSC 29/20 Q1014 NOSIG=
49 Colombo VCBI 170410Z 19006KT 160V230 9999 FEW016 FEW018CB 27/23 Q1015 NOSIG RMK W/NW=
50 Karachi OPKC 170325Z 00000KT 2000 FU NSC 27/22 Q1013 BECMG 5000 HZ=
51 Lahore OPLA 170329Z 07004KT 3000 FU NSC 22/16 Q1013 RMK QFE987 RMK A29.90=
52 Leh VILH 170400Z VRB02KT 6000 FEW070 SCT120 BKN150 10/-1 Q1023 NOSIG=
53 Sri Nagar VISR 170400Z 36005KT 6000 SCT025 12/07 Q1025 NOSIG=
54 Jammu VIJU 170400Z 01004KT 6000 FEW100 24/11 Q1014 NOSIG=
55 Jodhpur VIJO 170400Z VRB02KT 6000 SKC 28/10 Q1015 NOSIG=
56 Bhuj-Rudra VABJ 170400Z 24005KT 6000 SCT100 30/24 Q1015 NOSIG=
57 Gorakhpur VEGK 170400Z VRB02KT 3000 HZ SKC 26/21 Q1013 BECMG 4000=
58 Allahabad VIAL 170400Z 20003KT 6000 FEW250 29/17 Q1013 NOSIG=
59 Agra VIAG 170400Z 27002KT 5000 HZ FEW100 28/14 Q1013 NOSIG=
60 Bagdogra VEBD 170330Z 09003KT 4000 HZ SKC 26/20 Q1014 BECMG 5000=
61 Gwalior VIGR 170400Z 25006KT 6000 BKN250 30/15 Q1013 NOSIG=
62 Pune VAPO 170400Z 05004KT 4500 HZ SCT250 29/17 Q1018 BECMG 5000=
63 Chandigarh VICG 170400Z VRB02KT 6000 SKC 25/13 Q1014 NOSIG=
64 Jamnagar VAJM 170400Z 24003KT 4000 BR FEW015 26/25 Q1014 BECMG 5000=

 

--- End of List ---